Time;durP1;ratioP1;P1;durP2;ratioP2;P2;SDS_P1;SDS_P2;PMS_P1;PMS_P2;Temp;Humidity;BMP_temperature;BMP_pressure;BME280_temperature;BME280_humidity;BME280_pressure;Samples;Min_cycle;Max_cycle;Signal;HPM_P1;HPM_P2
2022/04/06 00:01:45;;;;;;;13.32;9.63;;;;;;;8.97;65.77;98362.59;5093428;28;20028;-51
2022/04/06 00:04:11;;;;;;;15.05;9.07;;;;;;;9.09;65.42;98357.59;5093417;28;20051;-51
2022/04/06 00:06:37;;;;;;;12.27;8.48;;;;;;;9.13;64.89;98350.94;5093327;28;20062;-50
2022/04/06 00:09:03;;;;;;;11.15;8.50;;;;;;;9.15;64.79;98354.16;5093301;28;20103;-51
2022/04/06 00:11:29;;;;;;;9.68;7.78;;;;;;;9.14;64.46;98357.81;5091923;28;20505;-50
2022/04/06 00:13:55;;;;;;;11.93;8.57;;;;;;;9.14;64.96;98356.00;5093138;28;20052;-50
2022/04/06 00:16:21;;;;;;;12.85;8.95;;;;;;;9.15;64.77;98341.09;5091842;28;20427;-51
2022/04/06 00:18:46;;;;;;;10.98;9.35;;;;;;;9.18;64.60;98340.69;5092509;28;20027;-51
2022/04/06 00:21:12;;;;;;;12.18;8.63;;;;;;;9.19;64.78;98329.19;5092674;28;20024;-50
2022/04/06 00:23:38;;;;;;;11.50;8.60;;;;;;;9.18;64.86;98338.09;5091665;28;20039;-51
2022/04/06 00:26:04;;;;;;;10.15;8.77;;;;;;;9.26;64.18;98332.66;5092976;28;20024;-50
2022/04/06 00:28:30;;;;;;;11.13;9.32;;;;;;;9.29;64.09;98334.84;5092870;28;20036;-51
2022/04/06 00:30:56;;;;;;;12.95;10.38;;;;;;;9.30;64.24;98331.25;5092567;28;20040;-51
2022/04/06 00:33:22;;;;;;;13.23;9.80;;;;;;;9.36;64.64;98333.06;5091451;28;20020;-51
2022/04/06 00:35:48;;;;;;;14.02;8.98;;;;;;;9.42;63.92;98333.25;5092779;28;20474;-51
2022/04/06 00:38:14;;;;;;;14.82;9.82;;;;;;;9.47;63.87;98334.25;5091399;28;20520;-51
2022/04/06 00:40:40;;;;;;;13.48;11.57;;;;;;;9.51;63.89;98329.44;5092721;28;20043;-51
2022/04/06 00:43:08;;;;;;;14.38;10.82;;;;;;;9.52;63.71;98334.47;5092652;28;20020;-51
2022/04/06 00:45:34;;;;;;;12.00;10.38;;;;;;;9.50;63.04;98328.63;5092587;28;20020;-51
2022/04/06 00:48:00;;;;;;;14.55;12.25;;;;;;;9.42;63.64;98325.38;5091275;28;20020;-51
2022/04/06 00:50:26;;;;;;;12.52;10.50;;;;;;;9.34;64.00;98326.41;5092530;28;20081;-51
2022/04/06 00:52:56;;;;;;;10.88;9.35;;;;;;;9.27;63.61;98322.97;5092418;28;20016;-51
2022/04/06 00:55:29;;;;;;;11.60;9.93;;;;;;;9.23;63.43;98325.19;5092387;28;20073;-50
2022/04/06 00:57:55;;;;;;;11.43;9.68;;;;;;;9.21;64.01;98321.97;5091206;28;20446;-51
2022/04/06 01:00:20;;;;;;;12.32;9.10;;;;;;;9.20;64.03;98318.53;5092338;28;20020;-50
2022/04/06 01:02:47;;;;;;;13.95;9.32;;;;;;;9.21;63.93;98324.56;5092348;28;20023;-51
2022/04/06 01:05:13;;;;;;;14.75;9.35;;;;;;;9.23;63.98;98317.31;5092366;28;20052;-50
2022/04/06 01:07:40;;;;;;;12.95;9.45;;;;;;;9.22;64.15;98312.31;5092853;28;20540;-51
2022/04/06 01:10:06;;;;;;;12.02;9.23;;;;;;;9.23;64.23;98316.53;5092194;28;20082;-51
2022/04/06 01:12:38;;;;;;;11.93;8.73;;;;;;;9.22;64.44;98309.69;5092184;28;20027;-51
2022/04/06 01:15:05;;;;;;;13.48;9.95;;;;;;;9.19;64.09;98316.13;5092421;28;20031;-51
2022/04/06 01:17:35;;;;;;;10.60;8.25;;;;;;;9.20;64.61;98302.03;5090795;28;20097;-50
2022/04/06 01:20:03;;;;;;;12.82;8.60;;;;;;;9.23;63.99;98303.44;5092104;28;20508;-51
2022/04/06 01:22:29;;;;;;;9.55;8.35;;;;;;;9.25;64.14;98301.41;5092014;28;20032;-50
2022/04/06 01:24:54;;;;;;;13.93;7.80;;;;;;;9.23;64.59;98300.81;5092000;28;20028;-51
2022/04/06 01:27:20;;;;;;;13.98;7.63;;;;;;;9.23;64.40;98298.19;5090630;28;20035;-50
2022/04/06 01:29:48;;;;;;;9.13;7.35;;;;;;;9.24;64.35;98292.75;5091713;28;20099;-51
2022/04/06 01:32:17;;;;;;;9.48;7.47;;;;;;;9.26;64.23;98290.75;5091666;28;20027;-50
2022/04/06 01:34:44;;;;;;;12.23;7.25;;;;;;;9.26;64.82;98296.00;5091912;28;20024;-50
2022/04/06 01:37:12;;;;;;;12.90;7.72;;;;;;;9.30;64.17;98288.53;5090534;28;20020;-51
2022/04/06 01:39:40;;;;;;;9.57;7.47;;;;;;;9.30;64.48;98289.34;5091890;28;20024;-51
2022/04/06 01:42:08;;;;;;;12.02;7.90;;;;;;;9.33;64.21;98286.31;5091785;28;20393;-50
2022/04/06 01:44:34;;;;;;;10.93;7.70;;;;;;;9.34;64.31;98287.13;5090498;28;20494;-51
2022/04/06 01:47:02;;;;;;;12.43;8.00;;;;;;;9.39;64.88;98284.69;5090458;28;20028;-51
2022/04/06 01:52:12;;;;;;;11.70;8.48;;;;;;;9.49;64.16;98284.28;5091993;28;20180;-51
2022/04/06 01:55:06;;;;;;;8.88;7.97;;;;;;;9.47;64.41;98276.63;5091684;28;20133;-50
2022/04/06 01:57:32;;;;;;;11.98;7.80;;;;;;;9.48;63.97;98282.69;5091720;28;20038;-51
2022/04/06 01:59:58;;;;;;;10.40;7.32;;;;;;;9.47;64.18;98276.63;5091684;28;20031;-51
2022/04/06 02:02:30;;;;;;;11.30;8.23;;;;;;;9.48;64.12;98275.63;5091659;28;20012;-51
2022/04/06 02:04:58;;;;;;;9.48;7.93;;;;;;;9.51;64.26;98267.34;5091675;28;20036;-51
2022/04/06 02:07:25;;;;;;;11.82;8.43;;;;;;;9.52;64.65;98268.97;5091606;28;20020;-51
2022/04/06 02:09:51;;;;;;;11.60;8.35;;;;;;;9.50;64.25;98263.13;5090332;28;20028;-51
2022/04/06 02:12:17;;;;;;;11.15;8.60;;;;;;;9.50;64.34;98259.72;5091513;28;20039;-51
2022/04/06 02:14:42;;;;;;;11.40;8.90;;;;;;;9.53;64.47;98257.47;5091498;28;20456;-50
2022/04/06 02:17:09;;;;;;;10.50;9.40;;;;;;;9.55;64.38;98246.81;5091491;28;20027;-51
2022/04/06 02:19:39;;;;;;;10.30;9.20;;;;;;;9.51;64.48;98254.25;5090135;28;20032;-51
2022/04/06 02:22:07;;;;;;;10.70;9.48;;;;;;;9.46;64.33;98250.66;5091370;28;20401;-51
2022/04/06 02:24:33;;;;;;;10.85;9.18;;;;;;;9.43;64.87;98248.44;5091483;28;20452;-50
2022/04/06 02:26:59;;;;;;;13.20;9.20;;;;;;;9.44;65.03;98247.41;5090084;28;20568;-51
2022/04/06 02:29:25;;;;;;;11.68;8.63;;;;;;;9.45;65.03;98241.19;5091408;28;20035;-50
2022/04/06 02:31:51;;;;;;;9.48;8.38;;;;;;;9.48;64.73;98238.16;5089798;28;20059;-51
2022/04/06 02:34:17;;;;;;;13.50;8.93;;;;;;;9.50;64.82;98241.38;5089962;28;20029;-51
2022/04/06 02:36:42;;;;;;;13.10;8.75;;;;;;;9.48;65.03;98241.59;5090012;28;20493;-51
2022/04/06 02:39:08;;;;;;;11.75;8.70;;;;;;;9.49;65.02;98239.75;5089905;28;20024;-51
2022/04/06 02:41:34;;;;;;;12.90;8.68;;;;;;;9.51;65.03;98235.13;5091342;28;20024;-51
2022/04/06 02:44:00;;;;;;;9.93;8.07;;;;;;;9.55;65.08;98231.88;5094154;28;20028;-51
2022/04/06 02:46:26;;;;;;;16.73;8.52;;;;;;;9.55;64.70;98233.69;5094901;28;20028;-51
2022/04/06 02:48:51;;;;;;;14.00;9.02;;;;;;;9.51;64.74;98233.31;5094868;28;20150;-50
2022/04/06 02:51:17;;;;;;;9.80;7.60;;;;;;;9.50;65.21;98230.91;5094868;28;20028;-51
2022/04/06 02:53:43;;;;;;;11.02;8.90;;;;;;;9.48;64.97;98225.06;5094736;28;20034;-51
2022/04/06 02:56:08;;;;;;;10.45;8.20;;;;;;;9.46;64.76;98225.28;5093382;28;20024;-51
2022/04/06 02:58:34;;;;;;;13.75;9.02;;;;;;;9.45;64.91;98222.84;5094719;28;20139;-51
2022/04/06 03:01:00;;;;;;;17.90;8.70;;;;;;;9.45;65.44;98223.66;5094620;28;20020;-51
2022/04/06 03:03:26;;;;;;;10.32;7.82;;;;;;;9.45;64.94;98221.03;5093300;28;20405;-50
2022/04/06 03:05:52;;;;;;;12.75;9.95;;;;;;;9.43;65.07;98225.66;5094523;28;20020;-51
2022/04/06 03:08:18;;;;;;;12.93;10.43;;;;;;;9.40;65.46;98213.78;5094552;28;20020;-51
2022/04/06 03:10:44;;;;;;;12.50;8.82;;;;;;;9.39;65.11;98212.16;5093170;28;20125;-51
2022/04/06 03:13:10;;;;;;;15.32;9.57;;;;;;;9.35;65.54;98212.78;5094305;28;20028;-51
2022/04/06 03:15:35;;;;;;;13.85;10.35;;;;;;;9.28;65.70;98207.56;5094383;28;20481;-51
2022/04/06 03:18:04;;;;;;;11.93;10.35;;;;;;;9.26;65.83;98208.78;5094342;28;20108;-50
2022/04/06 03:20:29;;;;;;;12.00;9.80;;;;;;;9.22;65.55;98203.16;5094288;28;20027;-51
2022/04/06 03:22:55;;;;;;;10.82;9.73;;;;;;;9.24;65.89;98203.75;5094212;28;20012;-51
2022/04/06 03:25:21;;;;;;;14.20;9.88;;;;;;;9.26;65.61;98196.50;5094182;28;20027;-51
2022/04/06 03:27:47;;;;;;;18.85;10.75;;;;;;;9.26;65.44;98208.78;5092848;28;20042;-50
2022/04/06 03:30:13;;;;;;;12.00;9.40;;;;;;;9.25;65.54;98207.97;5093844;28;20055;-50
2022/04/06 03:32:40;;;;;;;14.35;10.50;;;;;;;9.22;66.00;98207.59;5092744;28;20556;-51
2022/04/06 03:35:07;;;;;;;11.73;9.30;;;;;;;9.18;65.45;98207.19;5094007;28;20521;-51
2022/04/06 03:37:33;;;;;;;13.05;10.32;;;;;;;9.14;66.02;98198.91;5093976;28;20457;-50
2022/04/06 03:39:59;;;;;;;12.32;10.65;;;;;;;9.15;66.05;98202.34;5092588;28;20016;-51
2022/04/06 03:42:25;;;;;;;11.43;10.23;;;;;;;9.09;66.30;98196.09;5093882;28;20020;-52
2022/04/06 03:44:50;;;;;;;12.35;9.68;;;;;;;8.99;66.76;98195.69;5093815;28;20055;-50
2022/04/06 03:47:16;;;;;;;11.75;9.98;;;;;;;8.89;67.25;98196.09;5092459;28;20028;-50
2022/04/06 03:49:42;;;;;;;12.63;9.63;;;;;;;8.87;66.86;98192.88;5093785;28;20048;-50
2022/04/06 03:52:10;;;;;;;12.43;10.15;;;;;;;8.86;66.67;98186.03;5093692;28;20020;-50
2022/04/06 03:54:36;;;;;;;15.77;11.13;;;;;;;8.79;67.00;98190.47;5093410;28;20378;-51
2022/04/06 03:57:02;;;;;;;11.65;10.40;;;;;;;8.74;67.63;98190.28;5092274;28;20032;-51
2022/04/06 03:59:27;;;;;;;12.15;10.07;;;;;;;8.75;67.99;98189.25;5092208;28;20115;-51
2022/04/06 04:01:53;;;;;;;13.65;9.77;;;;;;;8.73;67.41;98186.03;5093414;28;20032;-51
2022/04/06 04:04:19;;;;;;;14.15;10.60;;;;;;;8.71;67.46;98177.56;5093433;28;20371;-50
2022/04/06 04:06:45;;;;;;;16.90;10.45;;;;;;;8.70;67.84;98183.81;5093605;28;20055;-50
2022/04/06 04:09:10;;;;;;;13.93;10.23;;;;;;;8.72;67.59;98180.00;5093320;28;20020;-51
2022/04/06 04:11:36;;;;;;;12.30;10.52;;;;;;;8.74;67.80;98171.97;5093234;28;20065;-51
2022/04/06 04:14:02;;;;;;;13.27;10.68;;;;;;;8.75;67.22;98171.75;5093079;28;20059;-50
2022/04/06 04:16:27;;;;;;;14.00;11.02;;;;;;;8.79;67.63;98172.16;5091865;28;20039;-51
2022/04/06 04:18:54;;;;;;;14.40;10.30;;;;;;;8.84;67.46;98167.13;5093143;28;20052;-51
2022/04/06 04:21:35;;;;;;;15.60;10.40;;;;;;;8.89;67.48;98166.50;5091717;28;20028;-51
2022/04/06 04:24:08;;;;;;;11.93;10.10;;;;;;;8.93;67.52;98167.72;5091753;28;20024;-51
2022/04/06 04:26:36;;;;;;;13.07;10.73;;;;;;;8.94;67.03;98170.13;5092967;28;20074;-51
2022/04/06 04:29:05;;;;;;;11.43;10.25;;;;;;;8.97;67.05;98167.13;5092926;28;20016;-50
2022/04/06 04:31:31;;;;;;;16.08;10.23;;;;;;;8.99;66.91;98164.28;5092624;28;20104;-51
2022/04/06 04:33:57;;;;;;;11.93;10.73;;;;;;;9.06;67.05;98164.31;5092803;28;20035;-50
2022/04/06 04:36:24;;;;;;;14.38;11.02;;;;;;;9.08;67.07;98160.47;5091469;28;20028;-51
2022/04/06 04:38:49;;;;;;;13.70;10.27;;;;;;;9.12;66.82;98153.81;5091425;28;20118;-52
2022/04/06 04:41:16;;;;;;;12.82;10.63;;;;;;;9.14;66.70;98153.63;5092792;28;20024;-51
2022/04/06 04:43:42;;;;;;;14.93;10.48;;;;;;;9.15;66.77;98156.00;5091398;28;20031;-51
2022/04/06 04:46:08;;;;;;;19.77;11.25;;;;;;;9.20;66.88;98160.66;5091298;28;20107;-51
2022/04/06 04:48:34;;;;;;;17.05;11.68;;;;;;;9.23;67.11;98164.66;5092683;28;20110;-50
2022/04/06 04:51:00;;;;;;;14.00;12.57;;;;;;;9.25;66.92;98152.97;5092484;28;20031;-51
2022/04/06 04:53:26;;;;;;;17.08;12.32;;;;;;;9.27;66.87;98150.94;5092455;28;20024;-51
2022/04/06 04:55:53;;;;;;;13.25;11.80;;;;;;;9.29;67.15;98154.16;5092403;28;20016;-50
2022/04/06 04:58:20;;;;;;;14.60;13.05;;;;;;;9.25;67.28;98155.59;5091117;28;20440;-51
2022/04/06 05:00:46;;;;;;;20.50;13.63;;;;;;;9.21;67.43;98157.00;5091050;28;20024;-50
2022/04/06 05:03:12;;;;;;;17.10;12.88;;;;;;;9.24;67.82;98159.22;5092403;28;20032;-51
2022/04/06 05:05:44;;;;;;;12.98;11.38;;;;;;;9.24;68.15;98164.47;5091764;28;20020;-51
2022/04/06 05:08:10;;;;;;;20.45;15.32;;;;;;;9.23;67.99;98164.66;5092403;28;20052;-50
2022/04/06 05:10:36;;;;;;;23.52;14.20;;;;;;;9.24;67.83;98164.47;5090847;28;20020;-51
2022/04/06 05:13:04;;;;;;;21.08;13.70;;;;;;;9.28;67.98;98164.88;5092145;28;20082;-50
2022/04/06 05:15:29;;;;;;;17.55;12.60;;;;;;;9.31;67.88;98172.31;5092159;28;20103;-50
2022/04/06 05:17:55;;;;;;;14.95;12.52;;;;;;;9.32;67.70;98164.25;5092188;28;20115;-51
2022/04/06 05:20:21;;;;;;;14.65;12.65;;;;;;;9.32;67.51;98164.25;5090775;28;20047;-51
2022/04/06 05:22:47;;;;;;;18.45;12.73;;;;;;;9.33;67.47;98155.38;5090742;28;20035;-51
2022/04/06 05:25:12;;;;;;;18.45;12.45;;;;;;;9.34;67.50;98158.81;5090703;28;20030;-51
2022/04/06 05:27:46;;;;;;;13.65;12.00;;;;;;;9.35;67.99;98158.59;5091955;28;20371;-51
2022/04/06 05:30:17;;;;;;;17.60;12.55;;;;;;;9.39;67.70;98154.53;5091761;28;20044;-51
2022/04/06 05:32:44;;;;;;;17.20;12.57;;;;;;;9.44;67.72;98158.38;5090631;28;20024;-51
2022/04/06 05:35:11;;;;;;;21.00;12.90;;;;;;;9.46;67.50;98161.59;5091941;28;20040;-51
2022/04/06 05:37:38;;;;;;;16.88;12.38;;;;;;;9.50;67.45;98163.59;5090551;28;20115;-51
2022/04/06 05:40:05;;;;;;;42.60;15.85;;;;;;;9.52;67.69;98168.66;5091849;28;20028;-51
2022/04/06 05:42:31;;;;;;;93.30;20.63;;;;;;;9.54;67.36;98162.19;5091834;28;20103;-51
2022/04/06 05:44:57;;;;;;;23.23;13.68;;;;;;;9.59;67.32;98166.78;5091856;28;20493;-51
2022/04/06 05:47:23;;;;;;;25.85;13.13;;;;;;;9.63;67.35;98170.59;5092011;28;20017;-50
2022/04/06 05:49:49;;;;;;;31.20;12.75;;;;;;;9.68;67.36;98162.94;5090457;28;20238;-51
2022/04/06 05:52:15;;;;;;;18.45;12.80;;;;;;;9.71;67.38;98162.50;5090450;28;20026;-50
2022/04/06 05:54:41;;;;;;;23.77;12.45;;;;;;;9.73;67.12;98160.50;5091624;28;20073;-51
2022/04/06 05:57:06;;;;;;;26.95;12.30;;;;;;;9.76;66.83;98161.91;5091632;28;20020;-50
2022/04/06 05:59:32;;;;;;;19.33;11.82;;;;;;;9.77;66.62;98166.13;5090352;28;20028;-50
2022/04/06 06:01:58;;;;;;;22.38;13.00;;;;;;;9.75;66.99;98162.91;5091683;28;20024;-51
2022/04/06 06:04:24;;;;;;;20.58;12.20;;;;;;;9.77;67.05;98164.31;5091690;28;20425;-51
2022/04/06 06:06:49;;;;;;;15.93;11.18;;;;;;;9.79;66.60;98164.91;5091649;28;20023;-51
2022/04/06 06:09:15;;;;;;;22.00;10.52;;;;;;;9.79;66.44;98156.25;5090266;28;20393;-51
2022/04/06 06:11:41;;;;;;;16.17;11.43;;;;;;;9.84;66.55;98160.84;5090258;28;20046;-51
2022/04/06 06:14:08;;;;;;;16.23;11.30;;;;;;;9.85;66.10;98165.09;5090170;28;20067;-51
2022/04/06 06:16:34;;;;;;;20.23;12.57;;;;;;;9.88;66.24;98154.19;5091530;28;20069;-51
2022/04/06 06:19:00;;;;;;;15.10;11.30;;;;;;;9.94;65.82;98167.28;5093542;28;20160;-51
2022/04/06 06:21:27;;;;;;;14.38;11.18;;;;;;;9.96;65.74;98165.25;5095428;28;20073;-50
2022/04/06 06:23:53;;;;;;;23.75;11.65;;;;;;;9.99;65.69;98166.63;5095685;28;20028;-51
2022/04/06 06:26:20;;;;;;;13.35;10.35;;;;;;;10.06;65.79;98169.22;5093949;28;20028;-51
2022/04/06 06:28:46;;;;;;;17.52;10.73;;;;;;;10.11;65.54;98170.19;5093986;28;20023;-51
2022/04/06 06:31:12;;;;;;;19.33;10.48;;;;;;;10.18;65.32;98163.13;5093696;28;20044;-51
2022/04/06 06:33:37;;;;;;;12.77;11.30;;;;;;;10.26;65.03;98166.50;5095105;28;20028;-51
2022/04/06 06:36:03;;;;;;;14.55;10.98;;;;;;;10.34;64.93;98166.25;5095189;28;20077;-51
2022/04/06 06:38:29;;;;;;;16.58;11.02;;;;;;;10.43;64.86;98157.13;5095121;28;20401;-51
2022/04/06 06:40:55;;;;;;;12.70;11.20;;;;;;;10.55;64.59;98157.25;5093700;28;20031;-52
2022/04/06 06:43:20;;;;;;;25.77;12.02;;;;;;;10.65;64.10;98157.59;5093731;28;20115;-51
2022/04/06 06:45:46;;;;;;;14.02;11.02;;;;;;;10.74;64.12;98155.50;5093630;28;20024;-51
2022/04/06 06:48:12;;;;;;;14.18;11.48;;;;;;;10.83;63.80;98150.78;5094976;28;20020;-51
2022/04/06 06:50:38;;;;;;;17.60;12.00;;;;;;;10.86;63.63;98152.97;5093563;28;20031;-50
2022/04/06 06:53:04;;;;;;;17.63;12.00;;;;;;;10.90;63.39;98162.81;5094804;28;20048;-51
2022/04/06 06:55:29;;;;;;;14.32;11.60;;;;;;;10.93;63.17;98153.72;5093415;28;20032;-51
2022/04/06 06:57:55;;;;;;;12.68;11.38;;;;;;;10.99;63.02;98158.13;5094757;28;20016;-51
2022/04/06 07:00:21;;;;;;;21.23;11.45;;;;;;;11.06;62.91;98155.44;5093382;28;20048;-51
2022/04/06 07:02:47;;;;;;;16.70;11.20;;;;;;;11.15;62.79;98151.50;5093323;28;20079;-51
2022/04/06 07:05:12;;;;;;;18.00;11.57;;;;;;;11.24;62.56;98149.41;5094608;28;20032;-51
2022/04/06 07:07:52;;;;;;;17.20;10.93;;;;;;;11.28;62.35;98140.84;5094554;28;20099;-50
2022/04/06 07:10:18;;;;;;;29.45;11.77;;;;;;;11.36;62.31;98151.06;5094542;28;20444;-51
2022/04/06 07:12:43;;;;;;;22.23;12.40;;;;;;;11.42;62.32;98144.16;5094399;28;20024;-51
2022/04/06 07:15:10;;;;;;;20.30;12.05;;;;;;;11.48;62.45;98139.84;5092978;28;20441;-50
2022/04/06 07:17:36;;;;;;;18.65;10.98;;;;;;;11.48;62.24;98143.28;5093023;28;20405;-50
2022/04/06 07:20:02;;;;;;;24.00;11.48;;;;;;;11.53;62.34;98140.81;5094321;28;20428;-51
2022/04/06 07:22:28;;;;;;;31.42;12.32;;;;;;;11.58;62.37;98146.19;5094299;28;20028;-51
2022/04/06 07:24:53;;;;;;;23.95;12.00;;;;;;;11.63;62.30;98147.34;5094208;28;20031;-50
2022/04/06 07:27:19;;;;;;;15.20;11.15;;;;;;;11.69;62.26;98144.66;5094168;28;20024;-50
2022/04/06 07:29:45;;;;;;;14.88;11.02;;;;;;;11.75;62.11;98138.53;5093301;28;20508;-50
2022/04/06 07:32:10;;;;;;;20.38;11.95;;;;;;;11.87;62.00;98143.00;5092691;28;20054;-50
2022/04/06 07:34:36;;;;;;;28.90;12.43;;;;;;;11.90;61.94;98135.53;5092592;28;20012;-51
2022/04/06 07:37:02;;;;;;;18.58;10.45;;;;;;;11.97;61.84;98133.63;5092688;28;20031;-51
2022/04/06 07:39:28;;;;;;;17.60;11.45;;;;;;;12.07;61.34;98130.44;5092599;28;20020;-51
2022/04/06 07:41:57;;;;;;;22.27;12.10;;;;;;;12.14;61.06;98130.34;5093882;28;20406;-51
2022/04/06 07:44:23;;;;;;;26.85;11.68;;;;;;;12.22;61.38;98130.03;5093836;28;20113;-51
2022/04/06 07:46:50;;;;;;;21.33;11.63;;;;;;;12.39;60.77;98132.81;5093817;28;20030;-51
2022/04/06 07:49:17;;;;;;;19.60;10.95;;;;;;;12.56;60.70;98131.16;5093739;28;20379;-51
2022/04/06 07:51:43;;;;;;;15.98;10.70;;;;;;;12.74;60.21;98132.09;5093610;28;20056;-50
2022/04/06 07:54:09;;;;;;;24.88;12.20;;;;;;;12.84;59.55;98128.88;5093609;28;20028;-51
2022/04/06 07:56:36;;;;;;;16.50;11.43;;;;;;;12.99;59.34;98137.13;5092213;28;20028;-51
2022/04/06 07:59:03;;;;;;;21.33;13.18;;;;;;;13.13;58.99;98137.69;5093553;28;20028;-51
2022/04/06 08:01:29;;;;;;;14.90;10.18;;;;;;;13.26;58.72;98129.56;5092134;28;20035;-51
2022/04/06 08:03:55;;;;;;;31.67;11.38;;;;;;;13.42;58.65;98127.25;5092166;28;20020;-51
2022/04/06 08:06:22;;;;;;;11.57;9.23;;;;;;;13.53;57.94;98124.59;5092007;28;20383;-51
2022/04/06 08:08:51;;;;;;;13.80;9.23;;;;;;;13.69;57.91;98128.34;5092063;28;20111;-50
2022/04/06 08:11:18;;;;;;;11.20;8.00;;;;;;;13.91;57.32;98122.44;5093256;28;20031;-52
2022/04/06 08:13:44;;;;;;;11.52;7.68;;;;;;;14.03;56.67;98131.09;5091885;28;20032;-51
2022/04/06 08:16:10;;;;;;;10.68;7.68;;;;;;;14.23;56.45;98120.09;5093225;28;20081;-52
2022/04/06 08:18:36;;;;;;;18.85;8.32;;;;;;;14.65;55.99;98124.22;5093154;28;20022;-52
2022/04/06 08:21:04;;;;;;;18.05;7.97;;;;;;;15.05;54.96;98117.94;5093107;28;20032;-50
2022/04/06 08:23:30;;;;;;;19.48;7.78;;;;;;;15.37;54.01;98126.88;5093083;28;20501;-51
2022/04/06 08:25:55;;;;;;;18.30;8.10;;;;;;;15.49;53.40;98120.63;5093043;28;20032;-52
2022/04/06 08:28:21;;;;;;;21.60;8.20;;;;;;;15.62;53.19;98122.94;5093474;28;20099;-52
2022/04/06 08:30:47;;;;;;;25.25;8.85;;;;;;;15.68;53.05;98124.59;5092802;28;20063;-52
2022/04/06 08:33:14;;;;;;;25.77;8.25;;;;;;;15.73;52.49;98127.31;5092855;28;20077;-51
2022/04/06 08:35:40;;;;;;;16.95;9.32;;;;;;;15.80;52.33;98123.69;5092867;28;20085;-51
2022/04/06 08:38:10;;;;;;;13.60;8.25;;;;;;;15.81;52.12;98122.63;5092865;28;20031;-50
2022/04/06 08:40:37;;;;;;;20.98;8.85;;;;;;;15.81;52.14;98120.78;5090682;28;20066;-51
2022/04/06 08:43:08;;;;;;;19.13;8.27;;;;;;;15.73;52.44;98123.88;5091550;28;20111;-52
2022/04/06 08:45:34;;;;;;;12.15;8.32;;;;;;;15.72;52.37;98125.72;5092767;28;20037;-52
2022/04/06 08:48:01;;;;;;;13.10;7.40;;;;;;;15.76;52.37;98129.47;5092677;28;20073;-51
2022/04/06 08:50:29;;;;;;;11.38;6.97;;;;;;;15.79;52.05;98130.81;5092592;28;20028;-51
2022/04/06 08:52:57;;;;;;;22.92;8.30;;;;;;;15.81;52.08;98125.28;5092427;28;20454;-51
2022/04/06 08:55:23;;;;;;;22.70;7.03;;;;;;;15.84;52.20;98124.78;5091125;28;20059;-51
2022/04/06 08:57:49;;;;;;;11.73;6.28;;;;;;;15.82;51.86;98126.88;5092539;28;20020;-51
2022/04/06 09:00:17;;;;;;;9.48;5.55;;;;;;;15.82;51.89;98132.19;5091044;28;20035;-52
2022/04/06 09:02:43;;;;;;;26.70;5.35;;;;;;;15.85;51.83;98126.38;5092444;28;20042;-50
2022/04/06 09:05:10;;;;;;;17.70;5.47;;;;;;;15.83;51.88;98133.75;5092361;28;20498;-51
2022/04/06 09:07:39;;;;;;;16.15;4.80;;;;;;;15.82;51.99;98130.31;5091033;28;20020;-51
2022/04/06 09:10:05;;;;;;;14.32;3.58;;;;;;;15.89;51.61;98127.47;5092270;28;20023;-52
2022/04/06 09:12:31;;;;;;;10.55;3.15;;;;;;;15.99;51.45;98124.94;5092191;28;20107;-52
2022/04/06 09:15:06;;;;;;;4.45;2.55;;;;;;;16.14;51.26;98121.66;5092109;28;20126;-52
2022/04/06 09:17:45;;;;;;;13.03;3.27;;;;;;;16.30;51.02;98125.25;5092241;28;20016;-51
2022/04/06 09:20:11;;;;;;;9.77;3.00;;;;;;;16.52;50.47;98119.84;5092200;28;20016;-51
2022/04/06 09:22:37;;;;;;;5.53;2.10;;;;;;;16.74;50.04;98120.56;5090804;28;20031;-51
2022/04/06 09:25:05;;;;;;;6.80;2.33;;;;;;;16.87;49.40;98116.72;5090744;28;20024;-51
2022/04/06 09:27:34;;;;;;;7.25;2.72;;;;;;;17.05;48.95;98120.00;5090697;28;20452;-52
2022/04/06 09:30:03;;;;;;;6.97;2.70;;;;;;;17.15;48.49;98123.50;5091812;28;20563;-52
2022/04/06 09:32:29;;;;;;;4.05;1.83;;;;;;;17.28;48.17;98135.50;5092054;28;20048;-51
2022/04/06 09:34:55;;;;;;;3.85;1.65;;;;;;;17.41;47.54;98128.16;5091912;28;20397;-51
2022/04/06 09:37:28;;;;;;;4.82;1.58;;;;;;;17.56;47.27;98128.19;5091921;28;20103;-51
2022/04/06 09:39:56;;;;;;;5.95;1.58;;;;;;;17.78;46.80;98130.66;5090638;28;20119;-51
2022/04/06 09:42:24;;;;;;;4.63;1.00;;;;;;;18.02;45.86;98119.63;5091831;28;20055;-49
2022/04/06 09:47:40;;;;;;;3.92;1.95;;;;;;;18.00;46.00;98121.75;5092150;28;20043;-52
2022/04/06 09:50:12;;;;;;;10.15;2.38;;;;;;;17.77;46.34;98124.56;5090447;28;20508;-51
2022/04/06 09:52:39;;;;;;;9.07;2.35;;;;;;;17.60;46.20;98118.66;5094454;28;20016;-52
2022/04/06 09:55:10;;;;;;;3.75;1.85;;;;;;;17.29;47.09;98115.88;5094532;28;20031;-50
2022/04/06 09:57:52;;;;;;;3.42;2.00;;;;;;;17.28;47.32;98116.13;5094674;28;20056;-51
2022/04/06 10:00:22;;;;;;;8.73;2.30;;;;;;;17.33;47.17;98113.53;5095928;28;20020;-51
2022/04/06 10:03:02;;;;;;;4.45;2.30;;;;;;;17.13;47.39;98109.72;5094528;28;20020;-51
2022/04/06 10:05:31;;;;;;;3.50;2.30;;;;;;;16.95;47.20;98110.94;5095868;28;20493;-51
2022/04/06 10:08:01;;;;;;;6.28;2.20;;;;;;;16.76;47.52;98113.16;5095779;28;20024;-52
2022/04/06 10:10:27;;;;;;;7.18;2.17;;;;;;;16.62;47.83;98109.34;5095660;28;20112;-49
2022/04/06 10:12:54;;;;;;;5.82;2.58;;;;;;;16.53;47.89;98110.88;5094352;28;20031;-50
2022/04/06 10:15:20;;;;;;;4.15;1.95;;;;;;;16.42;48.03;98104.69;5095455;28;20573;-52
2022/04/06 10:17:46;;;;;;;3.03;1.65;;;;;;;16.23;48.28;98106.09;5094283;28;20031;-51
2022/04/06 10:20:29;;;;;;;5.32;1.83;;;;;;;16.16;48.80;98107.13;5095481;28;20420;-52
2022/04/06 10:23:16;;;;;;;3.95;2.08;;;;;;;16.27;48.49;98096.63;5095504;28;20032;-51
2022/04/06 10:26:15;;;;;;;7.68;1.90;;;;;;;16.45;48.44;98090.94;5095442;28;20024;-51
2022/04/06 10:28:44;;;;;;;6.35;1.35;;;;;;;16.65;47.88;98090.28;5095423;28;20103;-52
2022/04/06 10:31:22;;;;;;;2.45;1.13;;;;;;;16.84;47.47;98088.09;5093690;28;20048;-52
2022/04/06 10:34:24;;;;;;;6.55;1.38;;;;;;;17.04;47.24;98084.72;5095288;28;20073;-51
2022/04/06 10:37:11;;;;;;;12.32;1.85;;;;;;;17.07;47.01;98086.88;5095164;28;20035;-52
2022/04/06 10:39:57;;;;;;;2.08;1.30;;;;;;;17.01;46.94;98085.25;5093851;28;20074;-50
2022/04/06 10:42:29;;;;;;;1.40;1.30;;;;;;;16.97;46.94;98087.59;5095054;28;20404;-51
2022/04/06 10:44:58;;;;;;;3.55;1.52;;;;;;;16.99;46.87;98081.28;5093722;28;20509;-50
2022/04/06 10:47:29;;;;;;;16.58;2.03;;;;;;;17.04;46.92;98078.63;5077139;28;20472;-51
2022/04/06 10:50:15;;;;;;;9.73;1.63;;;;;;;17.24;46.66;98083.25;5095043;28;20073;-52
2022/04/06 10:52:43;;;;;;;4.45;1.35;;;;;;;17.41;46.23;98078.53;5094888;28;20047;-52
2022/04/06 10:55:11;;;;;;;11.68;1.90;;;;;;;17.56;45.88;98075.94;5094684;28;20124;-52
2022/04/06 10:58:03;;;;;;;12.32;1.60;;;;;;;17.84;45.78;98081.88;5094807;28;20028;-51
2022/04/06 11:00:30;;;;;;;2.90;1.40;;;;;;;18.07;44.98;98077.94;5093433;28;20023;-51
2022/04/06 11:03:13;;;;;;;1.88;1.25;;;;;;;18.25;44.14;98070.50;5094036;28;20115;-50
2022/04/06 11:05:51;;;;;;;2.90;1.13;;;;;;;18.33;43.99;98069.97;5094740;28;20028;-51
2022/04/06 11:11:45;;;;;;;2.78;1.10;;;;;;;18.96;42.98;98062.50;5094954;28;20169;-51
2022/04/06 11:14:13;;;;;;;2.85;1.05;;;;;;;19.31;42.14;98062.63;5094649;28;20024;-52
2022/04/06 11:16:46;;;;;;;13.20;1.58;;;;;;;19.50;41.68;98058.31;5093107;28;20028;-52
2022/04/06 11:19:16;;;;;;;9.40;1.52;;;;;;;19.63;41.21;98053.44;5093104;28;20040;-51
2022/04/06 11:21:55;;;;;;;3.65;1.33;;;;;;;19.70;41.02;98048.63;5094309;28;20048;-52
2022/04/06 11:24:27;;;;;;;1.15;1.02;;;;;;;19.79;40.59;98043.53;5094352;28;20028;-51
2022/04/06 11:26:54;;;;;;;3.30;1.30;;;;;;;19.86;40.80;98047.47;5092914;28;20020;-51
2022/04/06 11:29:26;;;;;;;8.57;1.60;;;;;;;19.97;40.43;98040.22;5092840;28;20028;-51
2022/04/06 11:31:56;;;;;;;5.28;1.70;;;;;;;20.12;40.14;98032.13;5094006;28;20463;-52
2022/04/06 11:34:40;;;;;;;6.75;1.35;;;;;;;20.29;39.70;98030.91;5092710;28;20020;-50
2022/04/06 11:37:08;;;;;;;5.63;1.10;;;;;;;20.52;39.17;98024.84;5092687;28;20024;-52
2022/04/06 11:39:34;;;;;;;1.40;0.90;;;;;;;21.12;38.27;98016.47;5093997;28;20020;-51
2022/04/06 11:42:03;;;;;;;2.95;0.98;;;;;;;21.66;37.16;98014.44;5093882;28;20028;-51